Moose Creek, Minnesota
Current Conditions -  °F | °C
As of 6:53 AM on Sunday 21 Dec 2014 (Local Time) from KBJI Reporting Station
Haze Haze  
Wind Chill: 20°   Ceiling: 400
Heat Index: 29°   Visibility: 5mi
Dew Point: 28°   Wind: 9mph
Humidity: 97%   Direction: 170°S
Pressure: 29.78"   Gusts: NA
Location:  47.4609°N, 95.2384°W
Report Text: KBJI 211253Z AUTO 17008KT 5SM BR OVC004 M02/M02 A2978 RMK AO2 T10171021
Loading
Personal Weather Stations






























Interactive Weather Map New forecast layout! Learn more

10-Day Weather Forecast

Advertisements
Track Severe Weather on mobile